createdAt,value
2018-07-17T00:01:36.877Z,17.60
2018-07-17T00:04:02.844Z,17.60
2018-07-17T00:06:28.826Z,17.50
2018-07-17T00:08:54.799Z,17.50
2018-07-17T00:11:20.784Z,17.50
2018-07-17T00:13:46.737Z,17.40
2018-07-17T00:16:12.695Z,17.40
2018-07-17T00:18:39.422Z,17.30
2018-07-17T00:21:05.404Z,17.30
2018-07-17T00:23:31.379Z,17.30
2018-07-17T00:25:58.079Z,17.20
2018-07-17T00:28:24.072Z,17.20
2018-07-17T00:30:50.035Z,17.20
2018-07-17T00:33:16.763Z,17.20
2018-07-17T00:35:42.737Z,17.10
2018-07-17T00:38:08.733Z,17.10
2018-07-17T00:40:35.442Z,17.00
2018-07-17T00:43:01.431Z,17.00
2018-07-17T00:45:27.391Z,17.00
2018-07-17T00:47:53.345Z,17.00
2018-07-17T00:50:20.047Z,16.90
2018-07-17T00:52:46.005Z,16.90
2018-07-17T00:55:12.696Z,16.80
2018-07-17T00:57:38.663Z,16.80
2018-07-17T01:00:05.394Z,16.80
2018-07-17T01:02:31.338Z,16.70
2018-07-17T01:04:58.022Z,16.70
2018-07-17T01:07:23.961Z,16.70
2018-07-17T01:09:49.922Z,16.60
2018-07-17T01:12:16.590Z,16.60
2018-07-17T01:14:42.553Z,16.60
2018-07-17T01:17:08.505Z,16.60
2018-07-17T01:19:35.217Z,16.50
2018-07-17T01:22:01.957Z,16.40
2018-07-17T01:24:27.886Z,16.40
2018-07-17T01:26:53.865Z,16.30
2018-07-17T01:29:19.827Z,16.40
2018-07-17T01:31:45.807Z,16.40
2018-07-17T01:34:11.757Z,16.40
2018-07-17T01:36:37.719Z,16.40
2018-07-17T01:39:04.418Z,16.40
2018-07-17T01:41:30.362Z,16.30
2018-07-17T01:43:56.311Z,16.40
2018-07-17T01:46:22.987Z,16.20
2018-07-17T01:48:48.974Z,16.20
2018-07-17T01:51:14.941Z,16.30
2018-07-17T01:53:40.923Z,16.30
2018-07-17T01:56:06.895Z,16.30
2018-07-17T01:58:32.839Z,16.30
2018-07-17T02:00:58.844Z,16.30
2018-07-17T02:03:24.837Z,16.30
2018-07-17T02:05:50.837Z,16.20
2018-07-17T02:08:16.803Z,16.20
2018-07-17T02:10:42.782Z,16.10
2018-07-17T02:13:08.753Z,16.10
2018-07-17T02:15:34.765Z,16.00
2018-07-17T02:18:01.503Z,15.90
2018-07-17T02:20:27.472Z,15.90
2018-07-17T02:22:54.208Z,15.90
2018-07-17T02:25:20.912Z,15.90
2018-07-17T02:27:46.881Z,15.80
2018-07-17T02:30:13.560Z,15.80
2018-07-17T02:32:39.579Z,15.80
2018-07-17T02:35:05.581Z,15.80
2018-07-17T02:37:31.531Z,15.80
2018-07-17T02:39:57.519Z,15.80
2018-07-17T02:42:23.597Z,15.80
2018-07-17T02:44:49.490Z,15.80
2018-07-17T02:47:15.456Z,15.80
2018-07-17T02:49:41.499Z,15.70
2018-07-17T02:52:07.405Z,15.80
2018-07-17T02:54:33.369Z,15.80
2018-07-17T02:57:00.067Z,15.80
2018-07-17T02:59:26.049Z,15.80
2018-07-17T03:01:52.009Z,15.80
2018-07-17T03:04:18.079Z,15.80
2018-07-17T03:06:44.030Z,15.80
2018-07-17T03:09:09.982Z,15.80
2018-07-17T03:11:35.939Z,15.70
2018-07-17T03:14:02.621Z,15.60
2018-07-17T03:16:28.580Z,15.60
2018-07-17T03:18:54.514Z,15.50
2018-07-17T03:21:21.245Z,15.50
2018-07-17T03:23:47.951Z,15.50
2018-07-17T03:26:13.928Z,15.50
2018-07-17T03:28:40.621Z,15.50
2018-07-17T03:31:06.596Z,15.50
2018-07-17T03:33:32.550Z,15.50
2018-07-17T03:35:58.527Z,15.50
2018-07-17T03:38:24.574Z,15.50
2018-07-17T03:40:50.578Z,15.40
2018-07-17T03:43:17.287Z,15.50
2018-07-17T03:45:43.225Z,15.50
2018-07-17T03:48:09.936Z,15.60
2018-07-17T03:50:35.896Z,15.60
2018-07-17T03:53:02.582Z,15.60
2018-07-17T03:55:28.558Z,15.50
2018-07-17T03:57:55.259Z,15.50
2018-07-17T04:00:21.233Z,15.50
2018-07-17T04:02:47.931Z,15.60
2018-07-17T04:05:14.658Z,15.70
2018-07-17T04:07:40.606Z,15.60
2018-07-17T04:10:06.592Z,15.70
2018-07-17T04:12:32.546Z,15.80
2018-07-17T04:14:58.527Z,15.80
2018-07-17T04:17:24.478Z,15.80
2018-07-17T04:19:50.437Z,15.90
2018-07-17T04:22:17.152Z,16.10
2018-07-17T04:24:43.101Z,16.00
2018-07-17T04:27:09.828Z,16.10
2018-07-17T04:29:36.526Z,16.20
2018-07-17T04:32:02.493Z,16.20
2018-07-17T04:34:29.186Z,16.40
2018-07-17T04:36:55.161Z,16.40
2018-07-17T04:39:21.865Z,16.70
2018-07-17T04:41:47.901Z,16.60
2018-07-17T04:44:13.848Z,16.80
2018-07-17T04:46:39.809Z,16.80
2018-07-17T04:49:05.794Z,16.90
2018-07-17T04:51:32.494Z,17.00
2018-07-17T04:53:58.486Z,17.00
2018-07-17T04:56:24.456Z,17.00
2018-07-17T04:58:50.446Z,17.10
2018-07-17T05:01:16.364Z,17.20
2018-07-17T05:03:42.338Z,17.20
2018-07-17T05:06:09.023Z,17.40
2018-07-17T05:08:35.009Z,17.50
2018-07-17T05:11:01.699Z,17.60
2018-07-17T05:13:27.663Z,17.60
2018-07-17T05:15:54.432Z,17.80
2018-07-17T05:18:20.402Z,17.70
2018-07-17T05:20:46.366Z,17.80
2018-07-17T05:23:13.043Z,17.90
2018-07-17T05:25:39.015Z,17.90
2018-07-17T05:28:04.984Z,18.00
2018-07-17T05:30:30.950Z,18.10
2018-07-17T05:32:57.629Z,18.30
2018-07-17T05:35:23.610Z,18.20
2018-07-17T05:37:49.577Z,18.40
2018-07-17T05:40:15.515Z,18.40
2018-07-17T05:42:41.489Z,18.50
2018-07-17T05:45:08.194Z,18.70
2018-07-17T05:47:34.152Z,18.70
2018-07-17T05:50:00.836Z,18.90
2018-07-17T05:52:26.957Z,18.90
2018-07-17T05:54:52.870Z,19.00
2018-07-17T05:57:18.809Z,19.10
2018-07-17T05:59:44.766Z,19.20
2018-07-17T06:02:10.708Z,19.30
2018-07-17T06:04:36.644Z,19.40
2018-07-17T06:07:03.314Z,19.70
2018-07-17T06:09:29.264Z,19.70
2018-07-17T06:11:55.199Z,19.80
2018-07-17T06:14:21.171Z,20.00
2018-07-17T06:16:47.118Z,20.10
2018-07-17T06:19:13.070Z,20.20
2018-07-17T06:21:39.014Z,20.40
2018-07-17T06:24:05.681Z,20.70
2018-07-17T06:26:31.629Z,20.70
2018-07-17T06:28:57.553Z,20.90
2018-07-17T06:31:23.515Z,21.00
2018-07-17T06:33:50.186Z,21.40
2018-07-17T06:36:16.156Z,21.40
2018-07-17T06:38:42.107Z,21.70
2018-07-17T06:41:08.057Z,22.10
2018-07-17T06:43:33.997Z,22.60
2018-07-17T06:45:59.972Z,23.50
2018-07-17T06:48:25.924Z,24.40
2018-07-17T06:50:51.881Z,25.10
2018-07-17T06:53:17.842Z,25.60
2018-07-17T06:55:44.527Z,26.30
2018-07-17T06:58:10.479Z,26.30
2018-07-17T07:00:36.419Z,26.60
2018-07-17T07:03:03.104Z,27.40
2018-07-17T07:05:29.019Z,27.40
2018-07-17T07:07:54.980Z,28.40
2018-07-17T07:10:20.938Z,28.60
2018-07-17T07:12:46.859Z,29.00
2018-07-17T07:15:12.828Z,29.70
2018-07-17T07:17:38.767Z,29.80
2018-07-17T07:20:04.730Z,29.50
2018-07-17T07:22:30.667Z,30.20
2018-07-17T07:24:56.622Z,30.40
2018-07-17T07:27:22.559Z,30.80
2018-07-17T07:29:48.505Z,30.40
2018-07-17T07:32:15.214Z,31.60
2018-07-17T07:34:41.154Z,31.60
2018-07-17T07:37:07.885Z,32.50
2018-07-17T07:39:33.830Z,32.50
2018-07-17T07:42:00.509Z,32.70
2018-07-17T07:44:26.482Z,32.70
2018-07-17T07:46:53.181Z,33.00
2018-07-17T07:49:19.225Z,33.00
2018-07-17T07:51:45.137Z,33.30
2018-07-17T07:54:11.103Z,34.00
2018-07-17T07:56:37.052Z,33.80
2018-07-17T07:59:03.031Z,33.80
2018-07-17T08:01:28.970Z,34.00
2018-07-17T08:03:55.666Z,34.70
2018-07-17T08:06:21.660Z,34.70
2018-07-17T08:08:47.586Z,35.10
2018-07-17T08:11:13.523Z,35.40
2018-07-17T08:13:39.463Z,36.00
2018-07-17T08:16:05.419Z,35.60
2018-07-17T08:18:32.090Z,35.40
2018-07-17T08:20:58.805Z,35.30
2018-07-17T08:23:24.752Z,35.30
2018-07-17T08:25:50.731Z,35.10
2018-07-17T08:28:16.669Z,35.60
2018-07-17T08:30:42.607Z,36.00
2018-07-17T08:33:08.567Z,35.80
2018-07-17T08:35:34.504Z,35.80
2018-07-17T08:38:00.480Z,35.70
2018-07-17T08:40:26.421Z,35.90
2018-07-17T08:42:52.367Z,35.90
2018-07-17T08:45:18.290Z,35.80
2018-07-17T08:47:44.242Z,36.40
2018-07-17T08:50:10.191Z,36.60
2018-07-17T08:52:36.161Z,36.40
2018-07-17T08:55:02.098Z,35.90
2018-07-17T08:57:28.786Z,36.70
2018-07-17T08:59:54.771Z,36.70
2018-07-17T09:02:20.732Z,37.00
2018-07-17T09:04:46.693Z,37.70
2018-07-17T09:07:12.616Z,37.60
2018-07-17T09:09:38.588Z,37.60
2018-07-17T09:12:04.524Z,37.30
2018-07-17T09:14:30.509Z,37.10
2018-07-17T09:16:56.433Z,37.30
2018-07-17T09:19:22.392Z,37.10
2018-07-17T09:21:48.352Z,37.40
2018-07-17T09:24:14.296Z,37.40
2018-07-17T09:26:40.984Z,35.40
2018-07-17T09:29:06.917Z,35.40
2018-07-17T09:31:32.858Z,35.40
2018-07-17T09:33:59.547Z,36.40
2018-07-17T09:36:25.506Z,36.40
2018-07-17T09:38:51.477Z,36.80
2018-07-17T09:41:17.437Z,37.00
2018-07-17T09:43:43.411Z,37.20
2018-07-17T09:46:10.084Z,38.10
2018-07-17T09:48:36.041Z,38.00
2018-07-17T09:51:01.997Z,37.30
2018-07-17T09:53:27.954Z,37.50
2018-07-17T09:55:53.890Z,37.30
2018-07-17T09:58:19.848Z,37.40
2018-07-17T10:00:46.535Z,37.60
2018-07-17T10:03:12.494Z,37.60
2018-07-17T10:05:39.265Z,37.30
2018-07-17T10:08:05.935Z,36.70
2018-07-17T10:10:31.904Z,36.70
2018-07-17T10:12:57.841Z,36.50
2018-07-17T10:15:24.543Z,34.70
2018-07-17T10:17:50.463Z,34.60
2018-07-17T10:20:16.435Z,33.20
2018-07-17T10:22:42.378Z,32.60
2018-07-17T10:25:08.326Z,32.50
2018-07-17T10:27:34.272Z,32.90
2018-07-17T10:30:00.264Z,33.30
2018-07-17T10:32:26.175Z,33.60
2018-07-17T10:34:52.154Z,33.40
2018-07-17T10:37:18.109Z,33.40
2018-07-17T10:39:44.077Z,33.50
2018-07-17T10:42:10.051Z,33.60
2018-07-17T10:44:35.973Z,33.60
2018-07-17T10:47:01.949Z,33.70
2018-07-17T10:49:27.902Z,33.70
2018-07-17T10:51:54.600Z,33.70
2018-07-17T10:54:20.540Z,33.70
2018-07-17T10:56:46.535Z,33.80
2018-07-17T10:59:12.467Z,33.70
2018-07-17T11:01:38.431Z,33.80
2018-07-17T11:04:05.098Z,33.80
2018-07-17T11:06:31.022Z,33.80
2018-07-17T11:08:56.966Z,33.80
2018-07-17T11:11:22.914Z,33.70
2018-07-17T11:13:48.876Z,33.60
2018-07-17T11:16:14.824Z,33.30
2018-07-17T11:18:40.774Z,33.40
2018-07-17T11:21:06.727Z,33.50
2018-07-17T11:23:32.655Z,33.50
2018-07-17T11:25:59.359Z,32.90
2018-07-17T11:28:25.300Z,33.00
2018-07-17T11:30:52.020Z,33.20
2018-07-17T11:33:17.941Z,33.10
2018-07-17T11:35:43.947Z,33.20
2018-07-17T11:38:09.878Z,33.20
2018-07-17T11:40:35.829Z,33.50
2018-07-17T11:43:02.527Z,33.20
2018-07-17T11:45:28.467Z,33.20
2018-07-17T11:47:54.470Z,33.40
2018-07-17T11:50:20.398Z,33.40
2018-07-17T11:52:46.355Z,33.50
2018-07-17T11:55:13.050Z,33.20
2018-07-17T11:57:39.008Z,33.20
2018-07-17T12:00:05.040Z,33.10
2018-07-17T12:02:31.749Z,32.90
2018-07-17T12:04:57.690Z,32.90
2018-07-17T12:07:23.621Z,32.80
2018-07-17T12:09:49.584Z,32.90
2018-07-17T12:12:15.520Z,32.80
2018-07-17T12:14:41.493Z,32.80
2018-07-17T12:17:08.167Z,32.30
2018-07-17T12:19:34.119Z,32.30
2018-07-17T12:22:00.057Z,32.20
2018-07-17T12:24:26.013Z,32.00
2018-07-17T12:26:51.957Z,32.00
2018-07-17T12:29:17.890Z,32.00
2018-07-17T12:31:43.862Z,32.00
2018-07-17T12:34:09.862Z,32.20
2018-07-17T12:36:35.819Z,32.00
2018-07-17T12:39:02.492Z,31.70
2018-07-17T12:41:28.453Z,31.60
2018-07-17T12:43:54.392Z,31.50
2018-07-17T12:46:21.140Z,31.30
2018-07-17T12:48:47.111Z,31.30
2018-07-17T12:51:13.066Z,31.40
2018-07-17T12:53:39.831Z,31.40
2018-07-17T12:56:06.521Z,31.50
2018-07-17T12:58:32.488Z,31.50
2018-07-17T13:00:59.169Z,31.50
2018-07-17T13:03:25.136Z,31.50
2018-07-17T13:05:51.858Z,31.40
2018-07-17T13:08:17.829Z,31.40
2018-07-17T13:10:43.786Z,31.40
2018-07-17T13:13:09.766Z,31.60
2018-07-17T13:15:36.434Z,31.20
2018-07-17T13:18:02.378Z,31.20
2018-07-17T13:20:28.361Z,31.10
2018-07-17T13:22:54.329Z,31.00
2018-07-17T13:25:20.286Z,31.00
2018-07-17T13:27:46.967Z,31.00
2018-07-17T13:30:12.942Z,31.00
2018-07-17T13:32:39.614Z,30.90
2018-07-17T13:35:05.576Z,30.90
2018-07-17T13:37:31.525Z,31.10
2018-07-17T13:39:58.215Z,31.40
2018-07-17T13:42:24.176Z,31.40
2018-07-17T13:44:50.164Z,31.40
2018-07-17T13:47:16.120Z,31.50
2018-07-17T13:49:42.807Z,31.10
2018-07-17T13:52:08.783Z,31.10
2018-07-17T13:54:35.474Z,31.10
2018-07-17T13:57:01.563Z,31.10
2018-07-17T13:59:28.240Z,30.60
2018-07-17T14:01:54.209Z,30.60
2018-07-17T14:04:20.194Z,30.60
2018-07-17T14:06:46.199Z,30.60
2018-07-17T14:09:12.102Z,30.70
2018-07-17T14:11:38.052Z,30.80
2018-07-17T14:14:04.010Z,31.10
2018-07-17T14:16:29.945Z,31.10
2018-07-17T14:18:55.901Z,31.30
2018-07-17T14:21:21.874Z,31.30
2018-07-17T14:23:47.991Z,31.30
2018-07-17T14:26:21.490Z,31.30
2018-07-17T14:28:47.453Z,31.30
2018-07-17T14:31:14.246Z,31.40
2018-07-17T14:33:40.216Z,31.40
2018-07-17T14:36:06.144Z,31.20
2018-07-17T14:38:32.840Z,31.00
2018-07-17T14:40:58.815Z,31.00
2018-07-17T14:43:25.514Z,30.50
2018-07-17T14:45:51.469Z,30.50
2018-07-17T14:48:17.434Z,30.60
2018-07-17T14:50:43.407Z,30.40
2018-07-17T14:53:10.102Z,30.30
2018-07-17T14:55:36.042Z,30.30
2018-07-17T14:58:02.000Z,30.30
2018-07-17T15:00:28.678Z,29.80
2018-07-17T15:02:54.646Z,29.80
2018-07-17T15:05:21.334Z,29.50
2018-07-17T15:07:47.299Z,29.50
2018-07-17T15:10:13.254Z,29.40
2018-07-17T15:12:39.220Z,29.50
2018-07-17T15:15:05.144Z,29.40
2018-07-17T15:17:31.091Z,29.30
2018-07-17T15:19:57.051Z,29.30
2018-07-17T15:22:23.792Z,28.90
2018-07-17T15:24:49.738Z,28.90
2018-07-17T15:27:15.665Z,28.80
2018-07-17T15:29:41.643Z,28.70
2018-07-17T15:32:08.360Z,28.50
2018-07-17T15:34:34.302Z,28.50
2018-07-17T15:37:00.993Z,28.30
2018-07-17T15:39:26.968Z,28.30
2018-07-17T15:41:53.667Z,28.10
2018-07-17T15:44:19.625Z,28.10
2018-07-17T15:46:46.315Z,28.00
2018-07-17T15:49:12.273Z,28.00
2018-07-17T15:51:38.255Z,28.00
2018-07-17T15:54:04.261Z,28.10
2018-07-17T15:56:30.965Z,27.90
2018-07-17T15:58:57.665Z,27.90
2018-07-17T16:01:23.597Z,27.90
2018-07-17T16:03:49.568Z,27.70
2018-07-17T16:06:16.321Z,27.60
2018-07-17T16:08:42.267Z,27.60
2018-07-17T16:11:08.216Z,27.70
2018-07-17T16:13:34.221Z,27.60
2018-07-17T16:16:00.145Z,27.60
2018-07-17T16:18:26.126Z,27.50
2018-07-17T16:20:52.072Z,27.50
2018-07-17T16:23:18.011Z,27.40
2018-07-17T16:25:43.952Z,27.40
2018-07-17T16:28:09.861Z,27.30
2018-07-17T16:30:35.815Z,27.30
2018-07-17T16:33:01.759Z,27.30
2018-07-17T16:35:27.721Z,27.30
2018-07-17T16:37:53.665Z,27.20
2018-07-17T16:40:19.630Z,27.10
2018-07-17T16:42:45.574Z,27.10
2018-07-17T16:45:11.508Z,27.00
2018-07-17T16:47:37.495Z,26.90
2018-07-17T16:50:04.178Z,26.70
2018-07-17T16:52:30.203Z,26.70
2018-07-17T16:54:56.139Z,26.60
2018-07-17T16:57:22.117Z,26.50
2018-07-17T16:59:48.065Z,26.50
2018-07-17T17:02:14.021Z,26.40
2018-07-17T17:04:40.728Z,26.30
2018-07-17T17:07:06.869Z,26.20
2018-07-17T17:09:32.806Z,26.20
2018-07-17T17:11:58.760Z,26.20
2018-07-17T17:14:24.725Z,26.30
2018-07-17T17:16:51.420Z,26.40
2018-07-17T17:19:17.406Z,26.40
2018-07-17T17:21:43.403Z,26.40
2018-07-17T17:24:09.429Z,26.20
2018-07-17T17:26:35.361Z,26.10
2018-07-17T17:29:01.320Z,26.10
2018-07-17T17:31:28.022Z,26.10
2018-07-17T17:33:53.975Z,26.00
2018-07-17T17:36:20.698Z,25.80
2018-07-17T17:38:46.651Z,25.80
2018-07-17T17:41:13.347Z,25.60
2018-07-17T17:43:39.304Z,25.60
2018-07-17T17:46:06.021Z,25.30
2018-07-17T17:48:31.982Z,25.30
2018-07-17T17:50:57.944Z,25.20
2018-07-17T17:53:23.921Z,25.20
2018-07-17T17:55:50.623Z,25.00
2018-07-17T17:58:16.567Z,24.90
2018-07-17T18:00:43.237Z,24.90
2018-07-17T18:03:09.207Z,24.90
2018-07-17T18:05:35.138Z,24.80
2018-07-17T18:08:01.116Z,24.80
2018-07-17T18:10:27.080Z,24.80
2018-07-17T18:12:53.041Z,24.80
2018-07-17T18:15:19.724Z,24.50
2018-07-17T18:17:45.728Z,24.50
2018-07-17T18:20:11.726Z,24.50
2018-07-17T18:22:37.693Z,24.50
2018-07-17T18:25:03.653Z,24.30
2018-07-17T18:27:30.385Z,24.20
2018-07-17T18:29:56.345Z,24.10
2018-07-17T18:32:22.343Z,24.10
2018-07-17T18:34:48.287Z,24.10
2018-07-17T18:37:14.217Z,23.90
2018-07-17T18:39:40.995Z,23.70
2018-07-17T18:42:07.067Z,23.70
2018-07-17T18:44:32.932Z,23.70
2018-07-17T18:46:58.886Z,23.60
2018-07-17T18:49:25.576Z,23.50
2018-07-17T18:51:51.536Z,23.50
2018-07-17T18:54:17.475Z,23.50
2018-07-17T18:56:44.159Z,23.30
2018-07-17T18:59:10.306Z,23.20
2018-07-17T19:01:37.056Z,23.20
2018-07-17T19:04:03.011Z,23.20
2018-07-17T19:06:29.698Z,22.90
2018-07-17T19:08:55.667Z,22.90
2018-07-17T19:11:21.635Z,22.90
2018-07-17T19:13:48.342Z,22.90
2018-07-17T19:16:15.066Z,22.80
2018-07-17T19:18:41.804Z,22.80
2018-07-17T19:21:07.757Z,22.80
2018-07-17T19:23:33.752Z,22.70
2018-07-17T19:25:59.677Z,22.70
2018-07-17T19:28:25.653Z,22.60
2018-07-17T19:30:51.592Z,22.60
2018-07-17T19:33:17.561Z,22.50
2018-07-17T19:35:44.321Z,22.10
2018-07-17T19:38:11.109Z,22.00
2018-07-17T19:40:37.105Z,22.00
2018-07-17T19:43:03.053Z,22.00
2018-07-17T19:45:29.012Z,21.80
2018-07-17T19:47:55.715Z,21.60
2018-07-17T19:50:21.704Z,21.60
2018-07-17T19:52:47.666Z,21.50
2018-07-17T19:55:13.810Z,21.40
2018-07-17T19:57:39.787Z,21.30
2018-07-17T20:00:05.734Z,21.30
2018-07-17T20:02:31.705Z,21.30
2018-07-17T20:04:57.685Z,21.20
2018-07-17T20:07:23.670Z,21.20
2018-07-17T20:09:49.661Z,21.10
2018-07-17T20:12:15.602Z,21.00
2018-07-17T20:14:41.588Z,20.80
2018-07-17T20:17:07.549Z,20.70
2018-07-17T20:19:33.533Z,20.70
2018-07-17T20:21:59.480Z,20.60
2018-07-17T20:24:25.465Z,20.50
2018-07-17T20:26:51.433Z,20.40
2018-07-17T20:29:17.655Z,20.40
2018-07-17T20:31:44.362Z,20.20
2018-07-17T20:34:10.335Z,20.10
2018-07-17T20:36:36.312Z,20.00
2018-07-17T20:39:02.256Z,20.00
2018-07-17T20:41:28.962Z,19.90
2018-07-17T20:43:54.901Z,19.80
2018-07-17T20:46:21.615Z,19.70
2018-07-17T20:48:47.609Z,19.70
2018-07-17T20:51:13.581Z,19.70
2018-07-17T20:53:40.280Z,19.60
2018-07-17T20:56:06.282Z,19.50
2018-07-17T20:58:32.264Z,19.50
2018-07-17T21:00:58.203Z,19.40
2018-07-17T21:03:24.239Z,19.30
2018-07-17T21:05:50.197Z,19.30
2018-07-17T21:08:16.187Z,19.20
2018-07-17T21:10:42.934Z,19.00
2018-07-17T21:13:08.941Z,18.90
2018-07-17T21:15:34.867Z,18.80
2018-07-17T21:18:00.840Z,18.90
2018-07-17T21:20:26.772Z,18.80
2018-07-17T21:22:52.742Z,18.70
2018-07-17T21:25:18.732Z,18.70
2018-07-17T21:27:44.656Z,18.70
2018-07-17T21:30:11.476Z,18.60
2018-07-17T21:32:37.437Z,18.50
2018-07-17T21:35:04.129Z,18.50
2018-07-17T21:37:30.081Z,18.40
2018-07-17T21:39:56.051Z,18.50
2018-07-17T21:42:22.017Z,18.40
2018-07-17T21:44:48.009Z,18.30
2018-07-17T21:47:13.928Z,18.30
2018-07-17T21:49:39.891Z,18.20
2018-07-17T21:52:05.835Z,18.20
2018-07-17T21:54:31.793Z,18.20
2018-07-17T21:56:57.777Z,18.20
2018-07-17T21:59:23.715Z,18.10
2018-07-17T22:01:50.427Z,18.10
2018-07-17T22:04:16.364Z,18.00
2018-07-17T22:06:43.090Z,18.00
2018-07-17T22:09:09.865Z,18.00
2018-07-17T22:11:35.889Z,18.10
2018-07-17T22:14:02.359Z,18.10
2018-07-17T22:16:28.300Z,18.10
2018-07-17T22:18:54.254Z,18.00
2018-07-17T22:21:20.976Z,17.90
2018-07-17T22:23:46.931Z,17.90
2018-07-17T22:26:12.871Z,17.80
2018-07-17T22:28:38.810Z,17.70
2018-07-17T22:31:05.543Z,17.60
2018-07-17T22:33:31.483Z,17.50
2018-07-17T22:35:57.453Z,17.50
2018-07-17T22:38:23.461Z,17.40
2018-07-17T22:40:49.592Z,17.30
2018-07-17T22:43:15.563Z,17.20
2018-07-17T22:45:41.586Z,17.20
2018-07-17T22:48:07.581Z,17.10
2018-07-17T22:50:33.636Z,17.10
2018-07-17T22:52:59.857Z,17.10
2018-07-17T22:55:26.789Z,16.90
2018-07-17T22:57:52.774Z,16.90
2018-07-17T23:00:18.693Z,16.90
2018-07-17T23:02:44.686Z,16.90
2018-07-17T23:05:11.447Z,16.90
2018-07-17T23:07:37.416Z,16.80
2018-07-17T23:10:03.406Z,16.80
2018-07-17T23:12:29.363Z,16.80
2018-07-17T23:14:55.297Z,16.80
2018-07-17T23:17:21.263Z,16.70
2018-07-17T23:19:47.210Z,16.70
2018-07-17T23:22:13.906Z,16.70
2018-07-17T23:24:39.858Z,16.70
2018-07-17T23:27:05.844Z,16.60
2018-07-17T23:29:31.820Z,16.60
2018-07-17T23:31:57.880Z,16.50
2018-07-17T23:34:23.912Z,16.50
2018-07-17T23:36:49.918Z,16.40
2018-07-17T23:39:15.920Z,16.40
2018-07-17T23:41:42.590Z,16.40
2018-07-17T23:44:08.767Z,16.30
2018-07-17T23:46:34.800Z,16.30
2018-07-17T23:49:00.827Z,16.30
2018-07-17T23:51:26.905Z,16.30
2018-07-17T23:53:52.863Z,16.20
2018-07-17T23:56:18.826Z,16.30
2018-07-17T23:58:45.521Z,16.30
